createdAt,value
2022-12-03T00:04:49.999Z,1.33
2022-12-03T00:09:51.431Z,1.41
2022-12-03T00:14:52.961Z,1.37
2022-12-03T00:19:54.335Z,1.39
2022-12-03T00:24:55.999Z,1.43
2022-12-03T00:29:57.574Z,1.50
2022-12-03T00:34:58.913Z,1.49
2022-12-03T00:40:00.278Z,1.54
2022-12-03T00:45:01.646Z,1.51
2022-12-03T00:50:03.166Z,1.53
2022-12-03T00:55:04.640Z,1.40
2022-12-03T01:00:06.617Z,1.47
2022-12-03T01:05:08.257Z,1.50
2022-12-03T01:10:09.946Z,1.54
2022-12-03T01:15:11.338Z,1.52
2022-12-03T01:20:12.764Z,1.53
2022-12-03T01:25:14.379Z,1.42
2022-12-03T01:30:15.723Z,1.51
2022-12-03T01:35:17.062Z,1.43
2022-12-03T01:40:19.778Z,1.45
2022-12-03T01:45:22.629Z,1.58
2022-12-03T01:50:31.768Z,1.38
2022-12-03T01:55:33.189Z,1.39
2022-12-03T02:00:34.554Z,1.54
2022-12-03T02:05:36.326Z,1.48
2022-12-03T02:10:38.345Z,1.45
2022-12-03T02:15:40.372Z,1.49
2022-12-03T02:20:46.734Z,1.53
2022-12-03T02:25:48.118Z,1.54
2022-12-03T02:30:49.455Z,1.63
2022-12-03T02:35:50.803Z,1.58
2022-12-03T02:40:53.901Z,1.62
2022-12-03T02:45:56.655Z,1.64
2022-12-03T02:51:00.414Z,1.65
2022-12-03T02:56:02.606Z,1.65
2022-12-03T03:01:04.232Z,1.68
2022-12-03T03:06:06.810Z,1.61
2022-12-03T03:11:08.314Z,1.65
2022-12-03T03:16:09.882Z,1.69
2022-12-03T03:21:12.278Z,1.68
2022-12-03T03:26:13.749Z,1.58
2022-12-03T03:31:16.456Z,1.62
2022-12-03T03:36:18.379Z,1.69
2022-12-03T03:41:21.090Z,1.73
2022-12-03T03:46:22.826Z,1.61
2022-12-03T03:51:24.261Z,1.67
2022-12-03T03:56:25.982Z,1.63
2022-12-03T04:01:27.744Z,1.62
2022-12-03T04:06:29.124Z,1.62
2022-12-03T04:11:49.267Z,1.59
2022-12-03T04:16:50.685Z,1.61
2022-12-03T04:22:30.638Z,1.64
2022-12-03T04:27:50.701Z,1.56
2022-12-03T04:33:10.540Z,1.59
2022-12-03T04:38:12.807Z,1.55
2022-12-03T04:43:14.192Z,1.51
2022-12-03T04:48:15.569Z,1.50
2022-12-03T04:53:17.217Z,1.54
2022-12-03T04:58:18.533Z,1.56
2022-12-03T05:03:19.853Z,1.63
2022-12-03T05:08:21.159Z,1.56
2022-12-03T05:13:22.491Z,1.54
2022-12-03T05:18:23.976Z,1.52
2022-12-03T05:23:25.355Z,1.47
2022-12-03T05:28:26.728Z,1.45
2022-12-03T05:33:28.102Z,1.49
2022-12-03T05:38:29.423Z,1.47
2022-12-03T05:43:30.731Z,1.48
2022-12-03T05:48:32.064Z,1.41
2022-12-03T05:53:33.412Z,1.42
2022-12-03T05:58:34.756Z,1.48
2022-12-03T06:03:36.299Z,1.38
2022-12-03T06:08:37.718Z,1.40
2022-12-03T06:13:39.037Z,1.44
2022-12-03T06:18:40.358Z,1.46
2022-12-03T06:23:44.712Z,1.46
2022-12-03T06:28:47.637Z,1.49
2022-12-03T06:33:49.006Z,1.46
2022-12-03T06:38:50.311Z,1.49
2022-12-03T06:43:51.640Z,1.48
2022-12-03T06:48:52.971Z,1.48
2022-12-03T06:53:54.317Z,1.47
2022-12-03T06:58:55.693Z,1.38
2022-12-03T07:03:57.003Z,1.38
2022-12-03T07:08:58.366Z,1.23
2022-12-03T07:14:05.129Z,1.26
2022-12-03T07:19:07.297Z,1.33
2022-12-03T07:24:09.013Z,1.42
2022-12-03T07:29:13.490Z,1.45
2022-12-03T07:34:14.890Z,1.46
2022-12-03T07:39:16.236Z,1.51
2022-12-03T07:44:17.637Z,1.49
2022-12-03T07:49:18.993Z,1.51
2022-12-03T07:54:20.943Z,1.55
2022-12-03T07:59:22.380Z,1.54
2022-12-03T08:04:23.822Z,1.63
2022-12-03T08:09:25.156Z,1.55
2022-12-03T08:14:27.413Z,1.59
2022-12-03T08:19:28.754Z,1.57
2022-12-03T08:24:30.331Z,1.72
2022-12-03T08:29:31.649Z,1.67
2022-12-03T08:34:37.881Z,1.74
2022-12-03T08:39:55.021Z,1.77
2022-12-03T08:44:56.835Z,1.85
2022-12-03T08:50:03.303Z,1.89
2022-12-03T08:55:24.653Z,1.87
2022-12-03T09:00:26.306Z,1.82
2022-12-03T09:05:34.789Z,1.81
2022-12-03T09:10:36.414Z,1.81
2022-12-03T09:15:37.721Z,1.93
2022-12-03T09:20:39.057Z,1.90
2022-12-03T09:25:40.366Z,1.99
2022-12-03T09:30:41.702Z,2.11
2022-12-03T09:35:43.094Z,2.03
2022-12-03T09:40:44.398Z,2.21
2022-12-03T09:45:46.353Z,2.18
2022-12-03T09:50:48.169Z,2.26
2022-12-03T09:55:49.587Z,2.16
2022-12-03T10:00:52.268Z,2.16
2022-12-03T10:05:53.684Z,2.24
2022-12-03T10:10:56.604Z,2.15
2022-12-03T10:15:59.357Z,2.17
2022-12-03T10:21:00.838Z,2.26
2022-12-03T10:26:03.612Z,2.15
2022-12-03T10:31:06.317Z,2.11
2022-12-03T10:36:15.001Z,2.16
2022-12-03T10:41:27.296Z,2.35
2022-12-03T10:46:28.734Z,2.26
2022-12-03T10:51:30.375Z,2.28
2022-12-03T10:56:31.859Z,2.28
2022-12-03T11:01:33.251Z,2.16
2022-12-03T11:06:34.718Z,2.22
2022-12-03T11:11:36.217Z,2.08
2022-12-03T11:16:40.342Z,2.25
2022-12-03T11:22:00.530Z,2.26
2022-12-03T11:27:01.823Z,2.18
2022-12-03T11:32:03.188Z,2.28
2022-12-03T11:37:10.664Z,2.24
2022-12-03T11:42:27.340Z,2.19
2022-12-03T11:47:29.460Z,2.28
2022-12-03T11:52:33.021Z,2.41
2022-12-03T11:57:38.538Z,2.47
2022-12-03T12:02:40.031Z,2.28
2022-12-03T12:07:41.888Z,2.32
2022-12-03T12:12:53.294Z,2.46
2022-12-03T12:17:56.175Z,2.44
2022-12-03T12:23:17.441Z,2.53
2022-12-03T12:28:18.749Z,2.31
2022-12-03T12:33:24.353Z,2.42
2022-12-03T12:38:28.432Z,2.48
2022-12-03T12:43:31.732Z,2.47
2022-12-03T12:48:36.141Z,2.58
2022-12-03T12:53:38.788Z,2.58
2022-12-03T12:58:40.309Z,2.61
2022-12-03T13:03:41.619Z,2.63
2022-12-03T13:08:45.045Z,2.75
2022-12-03T13:13:46.365Z,2.61
2022-12-03T13:18:49.358Z,2.55
2022-12-03T13:23:52.094Z,2.55
2022-12-03T13:28:55.648Z,2.63
2022-12-03T13:33:57.899Z,2.58
2022-12-03T13:38:59.289Z,2.55
2022-12-03T13:44:00.600Z,2.48
2022-12-03T13:49:02.295Z,2.48
2022-12-03T13:54:05.417Z,2.64
2022-12-03T13:59:07.368Z,2.52
2022-12-03T14:04:08.759Z,2.43
2022-12-03T14:09:10.088Z,2.50
2022-12-03T14:14:11.455Z,2.44
2022-12-03T14:19:13.277Z,2.36
2022-12-03T14:24:14.593Z,2.43
2022-12-03T14:29:15.913Z,2.28
2022-12-03T14:34:17.219Z,2.30
2022-12-03T14:39:18.593Z,2.38
2022-12-03T14:44:21.932Z,2.27
2022-12-03T14:49:23.259Z,2.29
2022-12-03T14:54:24.562Z,2.33
2022-12-03T14:59:27.864Z,2.30
2022-12-03T15:04:29.465Z,2.26
2022-12-03T15:09:30.862Z,2.29
2022-12-03T15:14:32.198Z,2.16
2022-12-03T15:19:33.611Z,2.16
2022-12-03T15:24:34.918Z,2.13
2022-12-03T15:29:36.255Z,2.17
2022-12-03T15:34:37.764Z,2.31
2022-12-03T15:39:43.706Z,2.28
2022-12-03T15:44:49.440Z,2.27
2022-12-03T15:49:50.767Z,2.16
2022-12-03T15:54:52.114Z,2.06
2022-12-03T15:59:54.423Z,2.08
2022-12-03T16:04:55.854Z,2.00
2022-12-03T16:09:57.328Z,2.08
2022-12-03T16:14:59.016Z,2.21
2022-12-03T16:20:00.435Z,2.09
2022-12-03T16:25:03.139Z,2.08
2022-12-03T16:30:05.588Z,2.01
2022-12-03T16:35:07.169Z,2.01
2022-12-03T16:40:08.770Z,1.93
2022-12-03T16:45:10.277Z,1.92
2022-12-03T16:50:16.442Z,1.95
2022-12-03T16:55:22.386Z,1.97
2022-12-03T17:00:25.787Z,2.01
2022-12-03T17:05:27.106Z,2.04
2022-12-03T17:10:28.495Z,1.90
2022-12-03T17:15:30.466Z,1.94
2022-12-03T17:20:32.657Z,1.93
2022-12-03T17:25:34.459Z,1.88
2022-12-03T17:30:35.805Z,1.87
2022-12-03T17:35:37.201Z,1.87
2022-12-03T17:40:38.817Z,1.89
2022-12-03T17:45:40.515Z,1.86
2022-12-03T17:50:42.018Z,1.84
2022-12-03T17:55:45.198Z,1.81
2022-12-03T18:00:46.757Z,1.78
2022-12-03T18:05:48.119Z,1.76
2022-12-03T18:10:49.579Z,1.72
2022-12-03T18:15:50.994Z,1.73
2022-12-03T18:20:53.206Z,1.66
2022-12-03T18:25:54.867Z,1.73
2022-12-03T18:30:56.355Z,1.72
2022-12-03T18:35:58.265Z,1.72
2022-12-03T18:40:59.863Z,1.77
2022-12-03T18:46:01.167Z,1.72
2022-12-03T18:51:02.503Z,1.74
2022-12-03T18:56:03.881Z,1.80
2022-12-03T19:01:05.766Z,1.69
2022-12-03T19:06:14.154Z,1.72
2022-12-03T19:11:18.483Z,1.67
2022-12-03T19:16:19.893Z,1.70
2022-12-03T19:21:21.630Z,1.61
2022-12-03T19:26:23.015Z,1.64
2022-12-03T19:31:24.659Z,1.68
2022-12-03T19:36:27.609Z,1.73
2022-12-03T19:41:32.510Z,1.70
2022-12-03T19:46:33.888Z,1.70
2022-12-03T19:51:36.039Z,1.69
2022-12-03T19:56:37.818Z,1.60
2022-12-03T20:01:41.037Z,1.62
2022-12-03T20:06:42.537Z,1.59
2022-12-03T20:11:49.694Z,1.64
2022-12-03T20:16:51.791Z,1.63
2022-12-03T20:21:56.390Z,1.62
2022-12-03T20:27:02.248Z,1.60
2022-12-03T20:32:04.873Z,1.64
2022-12-03T20:37:06.345Z,1.61
2022-12-03T20:42:08.965Z,1.55
2022-12-03T20:47:10.362Z,1.62
2022-12-03T20:52:11.745Z,1.63
2022-12-03T20:57:13.123Z,1.56
2022-12-03T21:02:14.727Z,1.61
2022-12-03T21:07:16.243Z,1.57
2022-12-03T21:12:17.621Z,1.56
2022-12-03T21:17:19.345Z,1.58
2022-12-03T21:22:20.755Z,1.58
2022-12-03T21:27:22.161Z,1.52
2022-12-03T21:32:23.524Z,1.56
2022-12-03T21:37:24.856Z,1.55
2022-12-03T21:42:36.652Z,1.54
2022-12-03T21:47:38.373Z,1.50
2022-12-03T21:52:39.896Z,1.55
2022-12-03T21:57:41.281Z,1.53
2022-12-03T22:02:42.890Z,1.57
2022-12-03T22:07:44.309Z,1.52
2022-12-03T22:12:45.689Z,1.60
2022-12-03T22:17:47.439Z,1.56
2022-12-03T22:22:48.762Z,1.54
2022-12-03T22:27:50.221Z,1.51
2022-12-03T22:32:51.609Z,1.52
2022-12-03T22:37:53.054Z,1.58
2022-12-03T22:42:54.371Z,1.63
2022-12-03T22:47:55.678Z,1.63
2022-12-03T22:52:56.978Z,1.60
2022-12-03T22:57:58.354Z,1.65
2022-12-03T23:02:59.943Z,1.60
2022-12-03T23:08:01.441Z,1.65
2022-12-03T23:13:03.358Z,1.65
2022-12-03T23:18:04.743Z,1.64
2022-12-03T23:23:06.079Z,1.65
2022-12-03T23:28:07.643Z,1.61
2022-12-03T23:33:08.991Z,1.61
2022-12-03T23:38:10.359Z,1.68
2022-12-03T23:43:11.734Z,1.69
2022-12-03T23:48:13.109Z,1.64
2022-12-03T23:53:14.680Z,1.60
2022-12-03T23:58:16.125Z,1.60
